Adelphi, Ohio
Current Conditions -  °F | °C
As of 10:35 PM on Friday 19 Dec 2014 (Local Time) from KRZT Reporting Station
Overcast Overcast  
Wind Chill: 25°   Ceiling: 1900
Heat Index: 30°   Visibility: 10mi
Dew Point: 23°   Wind: 5mph
Humidity: 75%   Direction: 90°E
Pressure: 30.28"   Gusts: NA
Location:  39.47°N, 82.75°W
Report Text: KRZT 200335Z AUTO 09004KT 10SM OVC019 M01/M05 A3028 RMK AO2
Loading
Personal Weather Stations






























Interactive Weather Map New forecast layout! Learn more

10-Day Weather Forecast

Advertisements
Track Severe Weather on mobile